createdAt,value
2018-11-05T00:00:46.035Z,27.07
2018-11-05T00:03:49.086Z,27.30
2018-11-05T00:06:52.164Z,26.57
2018-11-05T00:09:55.233Z,26.17
2018-11-05T00:12:58.333Z,26.17
2018-11-05T00:16:01.439Z,27.93
2018-11-05T00:19:04.530Z,27.77
2018-11-05T00:22:07.825Z,27.53
2018-11-05T00:25:12.352Z,26.53
2018-11-05T00:28:15.418Z,25.83
2018-11-05T00:31:18.504Z,26.60
2018-11-05T00:34:21.550Z,25.80
2018-11-05T00:37:24.657Z,26.03
2018-11-05T00:40:27.757Z,27.53
2018-11-05T00:43:30.814Z,28.47
2018-11-05T00:46:33.962Z,26.77
2018-11-05T00:49:37.076Z,27.07
2018-11-05T00:52:40.178Z,27.20
2018-11-05T00:55:43.271Z,27.33
2018-11-05T00:58:46.345Z,25.87
2018-11-05T01:01:49.401Z,27.73
2018-11-05T01:04:52.473Z,27.00
2018-11-05T01:07:55.537Z,25.90
2018-11-05T01:10:58.628Z,26.50
2018-11-05T01:14:01.710Z,26.93
2018-11-05T01:17:05.054Z,27.23
2018-11-05T01:20:09.634Z,27.60
2018-11-05T01:23:12.722Z,28.53
2018-11-05T01:26:15.802Z,27.17
2018-11-05T01:29:18.893Z,26.70
2018-11-05T01:32:21.962Z,27.73
2018-11-05T01:35:25.034Z,27.47
2018-11-05T01:41:37.752Z,28.53
2018-11-05T01:44:40.813Z,28.43
2018-11-05T01:47:44.417Z,26.47
2018-11-05T01:50:47.470Z,28.00
2018-11-05T01:53:50.544Z,28.37
2018-11-05T01:56:53.625Z,28.60
2018-11-05T01:59:56.730Z,27.43
2018-11-05T02:02:59.816Z,27.23
2018-11-05T02:06:02.915Z,29.27
2018-11-05T02:09:07.594Z,30.37
2018-11-05T02:12:10.666Z,30.40
2018-11-05T02:15:13.985Z,30.03
2018-11-05T02:18:17.039Z,29.77
2018-11-05T02:21:20.142Z,30.43
2018-11-05T02:24:23.223Z,31.30
2018-11-05T02:27:26.398Z,31.60
2018-11-05T02:30:29.390Z,31.40
2018-11-05T02:33:32.495Z,31.53
2018-11-05T02:36:35.578Z,31.90
2018-11-05T02:39:38.638Z,32.90
2018-11-05T02:42:42.441Z,33.50
2018-11-05T02:45:45.510Z,31.90
2018-11-05T02:48:48.598Z,31.20
2018-11-05T02:51:51.685Z,34.47
2018-11-05T02:54:54.778Z,32.70
2018-11-05T02:57:57.894Z,32.87
2018-11-05T03:01:15.790Z,30.13
2018-11-05T03:04:18.858Z,31.97
2018-11-05T03:07:21.971Z,31.20
2018-11-05T03:10:25.054Z,30.63
2018-11-05T03:13:28.141Z,32.47
2018-11-05T03:16:31.230Z,31.03
2018-11-05T03:19:34.349Z,32.40
2018-11-05T03:22:37.729Z,33.17
2018-11-05T03:25:40.802Z,32.13
2018-11-05T03:28:43.906Z,31.37
2018-11-05T03:31:46.993Z,30.20
2018-11-05T03:34:50.078Z,30.47
2018-11-05T03:37:53.225Z,31.73
2018-11-05T03:40:56.294Z,31.53
2018-11-05T03:43:59.385Z,31.13
2018-11-05T03:47:02.479Z,30.77
2018-11-05T03:50:07.857Z,31.87
2018-11-05T03:53:10.941Z,28.90
2018-11-05T03:56:14.129Z,29.07
2018-11-05T03:59:17.165Z,30.47
2018-11-05T04:02:20.253Z,30.20
2018-11-05T04:05:23.343Z,29.80
2018-11-05T04:08:26.401Z,31.17
2018-11-05T04:11:29.526Z,29.63
2018-11-05T04:14:32.585Z,29.30
2018-11-05T04:17:35.674Z,30.40
2018-11-05T04:20:38.745Z,29.50
2018-11-05T04:23:41.866Z,28.43
2018-11-05T04:26:45.869Z,29.00
2018-11-05T04:29:48.977Z,28.07
2018-11-05T04:32:52.058Z,28.40
2018-11-05T04:35:55.137Z,28.50
2018-11-05T04:38:58.206Z,28.97
2018-11-05T04:42:01.283Z,29.63
2018-11-05T04:45:05.694Z,27.57
2018-11-05T04:48:08.782Z,27.87
2018-11-05T04:51:11.858Z,30.40
2018-11-05T04:54:14.953Z,26.77
2018-11-05T04:57:18.035Z,26.13
2018-11-05T05:00:21.126Z,28.23
2018-11-05T05:03:24.283Z,27.33
2018-11-05T05:06:27.257Z,26.20
2018-11-05T05:09:30.347Z,27.67
2018-11-05T05:12:33.405Z,27.07
2018-11-05T05:15:36.491Z,26.77
2018-11-05T05:18:39.562Z,26.50
2018-11-05T05:21:42.658Z,26.60
2018-11-05T05:24:45.713Z,26.40
2018-11-05T05:27:48.784Z,29.03
2018-11-05T05:30:51.879Z,27.00
2018-11-05T05:33:54.958Z,29.13
2018-11-05T05:36:58.022Z,29.00
2018-11-05T05:40:01.109Z,29.27
2018-11-05T05:43:04.280Z,29.50
2018-11-05T05:46:07.329Z,29.97
2018-11-05T05:49:10.413Z,28.50
2018-11-05T05:52:13.501Z,27.97
2018-11-05T05:55:16.681Z,28.03
2018-11-05T05:58:19.773Z,28.50
2018-11-05T06:01:22.882Z,28.43
2018-11-05T06:04:25.973Z,26.97
2018-11-05T06:07:29.057Z,30.17
2018-11-05T06:10:32.175Z,27.67
2018-11-05T06:13:35.277Z,31.17
2018-11-05T06:16:38.369Z,28.30
2018-11-05T06:19:41.445Z,29.60
2018-11-05T06:22:45.262Z,30.27
2018-11-05T06:25:48.375Z,29.47
2018-11-05T06:28:51.441Z,29.80
2018-11-05T06:31:54.549Z,31.40
2018-11-05T06:34:57.606Z,31.60
2018-11-05T06:38:00.679Z,31.30
2018-11-05T06:41:03.795Z,30.00
2018-11-05T06:44:06.918Z,32.23
2018-11-05T06:47:10.098Z,29.80
2018-11-05T06:50:16.610Z,30.90
2018-11-05T06:53:26.314Z,29.93
2018-11-05T06:56:29.410Z,29.50
2018-11-05T06:59:32.466Z,29.97
2018-11-05T07:02:35.632Z,28.10
2018-11-05T07:05:38.691Z,31.70
2018-11-05T07:08:41.737Z,31.67
2018-11-05T07:11:44.809Z,30.70
2018-11-05T07:14:47.894Z,32.87
2018-11-05T07:17:50.994Z,30.53
2018-11-05T07:20:54.074Z,33.40
2018-11-05T07:23:57.174Z,31.70
2018-11-05T07:27:00.255Z,31.47
2018-11-05T07:30:04.198Z,31.80
2018-11-05T07:33:07.336Z,31.87
2018-11-05T07:36:10.625Z,31.47
2018-11-05T07:39:14.098Z,32.80
2018-11-05T07:42:17.209Z,32.27
2018-11-05T07:45:21.565Z,32.07
2018-11-05T07:48:24.641Z,30.03
2018-11-05T07:51:27.765Z,30.63
2018-11-05T07:54:30.830Z,28.30
2018-11-05T07:57:33.919Z,31.53
2018-11-05T08:00:42.537Z,29.77
2018-11-05T08:03:45.605Z,30.27
2018-11-05T08:06:49.800Z,30.10
2018-11-05T08:09:52.885Z,29.97
2018-11-05T08:12:56.013Z,29.10
2018-11-05T08:15:59.077Z,27.93
2018-11-05T08:19:02.252Z,28.50
2018-11-05T08:22:05.321Z,28.23
2018-11-05T08:25:13.977Z,28.17
2018-11-05T08:28:17.056Z,27.13
2018-11-05T08:31:20.349Z,26.70
2018-11-05T08:34:23.457Z,26.60
2018-11-05T08:37:26.489Z,26.70
2018-11-05T08:40:29.554Z,28.40
2018-11-05T08:43:32.637Z,27.50
2018-11-05T08:46:35.740Z,28.27
2018-11-05T08:49:38.841Z,26.97
2018-11-05T08:52:41.953Z,26.27
2018-11-05T08:55:45.063Z,26.20
2018-11-05T08:58:48.230Z,25.57
2018-11-05T09:01:51.312Z,25.50
2018-11-05T09:04:54.443Z,26.90
2018-11-05T09:07:57.571Z,25.40
2018-11-05T09:11:01.026Z,25.13
2018-11-05T09:14:03.781Z,25.77
2018-11-05T09:17:06.906Z,26.27
2018-11-05T09:20:11.214Z,25.80
2018-11-05T09:23:14.313Z,25.37
2018-11-05T09:26:17.441Z,26.97
2018-11-05T09:29:20.519Z,25.60
2018-11-05T09:32:23.669Z,27.67
2018-11-05T09:35:26.750Z,25.83
2018-11-05T09:38:29.850Z,26.80
2018-11-05T09:41:32.937Z,28.20
2018-11-05T09:44:41.922Z,27.90
2018-11-05T09:47:45.693Z,26.87
2018-11-05T09:50:49.060Z,26.93
2018-11-05T09:53:51.893Z,26.60
2018-11-05T09:56:54.962Z,27.67
2018-11-05T09:59:58.052Z,27.57
2018-11-05T10:03:06.530Z,26.70
2018-11-05T10:06:19.098Z,26.73
2018-11-05T10:09:22.181Z,25.93
2018-11-05T10:12:25.477Z,26.67
2018-11-05T10:15:45.326Z,25.33
2018-11-05T10:18:48.434Z,25.13
2018-11-05T10:22:01.524Z,25.17
2018-11-05T10:25:06.159Z,25.47
2018-11-05T10:28:09.499Z,25.63
2018-11-05T10:31:22.558Z,25.83
2018-11-05T10:34:25.598Z,25.67
2018-11-05T10:37:28.687Z,24.30
2018-11-05T10:40:31.852Z,25.77
2018-11-05T10:43:34.908Z,25.10
2018-11-05T10:46:37.998Z,24.97
2018-11-05T10:49:41.114Z,25.17
2018-11-05T10:52:45.705Z,23.90
2018-11-05T10:55:48.771Z,24.87
2018-11-05T10:58:51.889Z,24.37
2018-11-05T11:02:00.558Z,23.70
2018-11-05T11:05:03.645Z,25.57
2018-11-05T11:08:06.750Z,25.20
2018-11-05T11:11:09.841Z,25.47
2018-11-05T11:14:12.921Z,24.93
2018-11-05T11:17:16.009Z,24.57
2018-11-05T11:20:19.102Z,24.27
2018-11-05T11:23:22.193Z,22.17
2018-11-05T11:26:25.322Z,25.53
2018-11-05T11:29:28.524Z,23.30
2018-11-05T11:32:31.501Z,23.80
2018-11-05T11:35:34.611Z,23.33
2018-11-05T11:38:37.698Z,24.17
2018-11-05T11:41:41.098Z,23.70
2018-11-05T11:44:44.217Z,22.90
2018-11-05T11:47:47.285Z,22.33
2018-11-05T11:51:10.525Z,22.10
2018-11-05T11:54:13.665Z,20.90
2018-11-05T11:57:16.739Z,21.67
2018-11-05T12:00:22.994Z,22.00
2018-11-05T12:03:26.065Z,20.70
2018-11-05T12:06:29.150Z,21.20
2018-11-05T12:09:32.211Z,21.37
2018-11-05T12:12:35.347Z,21.90
2018-11-05T12:15:38.442Z,21.63
2018-11-05T12:18:41.542Z,20.50
2018-11-05T12:21:44.645Z,21.47
2018-11-05T12:24:47.770Z,21.70
2018-11-05T12:27:50.803Z,21.27
2018-11-05T12:30:53.902Z,21.03
2018-11-05T12:33:56.994Z,21.33
2018-11-05T12:37:00.067Z,21.37
2018-11-05T12:40:03.181Z,21.43
2018-11-05T12:43:06.281Z,22.07
2018-11-05T12:46:09.354Z,21.83
2018-11-05T12:49:12.455Z,20.80
2018-11-05T12:52:15.527Z,22.20
2018-11-05T12:55:18.611Z,22.70
2018-11-05T12:58:21.709Z,21.73
2018-11-05T13:01:24.814Z,21.33
2018-11-05T13:04:28.330Z,21.87
2018-11-05T13:07:31.419Z,21.90
2018-11-05T13:10:34.497Z,21.20
2018-11-05T13:13:37.566Z,22.37
2018-11-05T13:16:40.661Z,23.27
2018-11-05T13:19:43.775Z,22.63
2018-11-05T13:22:47.195Z,22.07
2018-11-05T13:25:50.118Z,22.93
2018-11-05T13:28:53.213Z,22.63
2018-11-05T13:31:56.318Z,23.50
2018-11-05T13:34:59.435Z,22.43
2018-11-05T13:38:03.067Z,22.27
2018-11-05T13:41:05.684Z,22.00
2018-11-05T13:44:08.782Z,21.77
2018-11-05T13:47:12.618Z,23.13
2018-11-05T13:50:15.870Z,24.60
2018-11-05T13:53:18.601Z,24.33
2018-11-05T13:56:21.709Z,23.50
2018-11-05T13:59:24.774Z,24.17
2018-11-05T14:02:27.880Z,24.13
2018-11-05T14:05:30.970Z,24.30
2018-11-05T14:08:34.096Z,24.43
2018-11-05T14:11:37.134Z,23.40
2018-11-05T14:14:40.308Z,24.07
2018-11-05T14:17:43.961Z,24.87
2018-11-05T14:20:47.068Z,24.10
2018-11-05T14:23:50.122Z,25.73
2018-11-05T14:26:53.272Z,23.93
2018-11-05T14:29:56.822Z,23.33
2018-11-05T14:32:59.418Z,25.10
2018-11-05T14:36:02.498Z,24.60
2018-11-05T14:39:08.937Z,24.63
2018-11-05T14:42:12.025Z,23.93
2018-11-05T14:45:17.501Z,24.07
2018-11-05T14:48:20.677Z,23.97
2018-11-05T14:51:23.652Z,24.17
2018-11-05T14:54:26.749Z,23.90
2018-11-05T14:57:29.816Z,24.10
2018-11-05T15:00:32.917Z,24.43
2018-11-05T15:03:35.965Z,24.93
2018-11-05T15:06:39.085Z,24.53
2018-11-05T15:09:42.185Z,24.80
2018-11-05T15:12:45.372Z,23.87
2018-11-05T15:15:48.481Z,25.47
2018-11-05T15:18:51.912Z,24.47
2018-11-05T15:21:54.690Z,25.33
2018-11-05T15:24:57.741Z,25.47
2018-11-05T15:28:00.816Z,26.27
2018-11-05T15:31:04.941Z,26.60
2018-11-05T15:34:08.031Z,26.27
2018-11-05T15:37:11.167Z,26.87
2018-11-05T15:40:18.592Z,28.70
2018-11-05T15:43:21.693Z,26.83
2018-11-05T15:46:24.749Z,27.33
2018-11-05T15:49:27.846Z,33.50
2018-11-05T15:52:31.151Z,29.20
2018-11-05T15:55:34.061Z,30.60
2018-11-05T15:58:37.262Z,29.33
2018-11-05T16:01:40.358Z,30.93
2018-11-05T16:04:44.022Z,31.00
2018-11-05T16:07:47.153Z,30.90
2018-11-05T16:10:50.270Z,31.93
2018-11-05T16:13:53.342Z,32.50
2018-11-05T16:16:56.417Z,32.77
2018-11-05T16:19:59.482Z,32.70
2018-11-05T16:23:02.574Z,33.00
2018-11-05T16:26:05.911Z,32.63
2018-11-05T16:29:08.998Z,33.27
2018-11-05T16:32:12.220Z,35.77
2018-11-05T16:35:15.192Z,33.27
2018-11-05T16:38:18.312Z,35.43
2018-11-05T16:41:21.366Z,34.00
2018-11-05T16:44:24.497Z,34.87
2018-11-05T16:47:27.550Z,33.93
2018-11-05T16:50:30.665Z,34.13
2018-11-05T16:53:33.760Z,33.33
2018-11-05T16:56:36.845Z,32.73
2018-11-05T16:59:39.915Z,32.27
2018-11-05T17:02:43.728Z,33.20
2018-11-05T17:05:46.685Z,31.50
2018-11-05T17:08:49.837Z,34.13
2018-11-05T17:11:52.945Z,31.00
2018-11-05T17:14:56.053Z,32.83
2018-11-05T17:17:59.170Z,33.10
2018-11-05T17:21:02.334Z,33.50
2018-11-05T17:24:05.494Z,33.63
2018-11-05T17:27:08.594Z,35.03
2018-11-05T17:30:15.297Z,33.27
2018-11-05T17:33:18.394Z,33.47
2018-11-05T17:36:21.481Z,35.37
2018-11-05T17:39:24.641Z,35.67
2018-11-05T17:42:46.655Z,36.80
2018-11-05T17:45:50.334Z,36.23
2018-11-05T17:48:53.790Z,36.83
2018-11-05T17:51:57.682Z,39.80
2018-11-05T17:55:01.296Z,39.87
2018-11-05T17:58:05.160Z,38.00
2018-11-05T18:01:08.522Z,39.67
2018-11-05T18:04:11.602Z,37.53
2018-11-05T18:07:14.694Z,39.03
2018-11-05T18:10:17.764Z,38.50
2018-11-05T18:13:20.829Z,39.10
2018-11-05T18:16:24.520Z,38.10
2018-11-05T18:19:28.117Z,36.93
2018-11-05T18:22:31.880Z,36.67
2018-11-05T18:25:35.643Z,38.37
2018-11-05T18:28:38.956Z,37.60
2018-11-05T18:31:42.067Z,38.97
2018-11-05T18:34:45.179Z,38.33
2018-11-05T18:37:50.085Z,41.53
2018-11-05T18:40:53.202Z,41.23
2018-11-05T18:43:56.278Z,40.60
2018-11-05T18:46:59.870Z,40.67
2018-11-05T18:50:03.574Z,41.23
2018-11-05T18:53:08.702Z,39.73
2018-11-05T18:56:12.388Z,39.10
2018-11-05T18:59:16.108Z,42.73
2018-11-05T19:02:25.090Z,42.67
2018-11-05T19:05:29.233Z,42.30
2018-11-05T19:08:32.333Z,42.00
2018-11-05T19:11:35.393Z,41.23
2018-11-05T19:14:38.484Z,41.07
2018-11-05T19:17:42.246Z,41.07
2018-11-05T19:20:45.329Z,40.87
2018-11-05T19:23:48.980Z,42.80
2018-11-05T19:26:51.901Z,39.47
2018-11-05T19:29:54.993Z,40.10
2018-11-05T19:32:58.066Z,39.87
2018-11-05T19:36:02.578Z,40.77
2018-11-05T19:39:08.702Z,39.77
2018-11-05T19:42:11.899Z,39.37
2018-11-05T19:45:17.629Z,37.53
2018-11-05T19:48:20.737Z,38.30
2018-11-05T19:51:23.794Z,38.50
2018-11-05T19:54:26.889Z,40.87
2018-11-05T19:57:30.038Z,38.07
2018-11-05T20:00:33.160Z,36.17
2018-11-05T20:03:36.206Z,36.27
2018-11-05T20:06:39.313Z,35.87
2018-11-05T20:09:42.479Z,34.20
2018-11-05T20:12:45.973Z,37.33
2018-11-05T20:15:49.174Z,38.13
2018-11-05T20:18:52.177Z,36.53
2018-11-05T20:21:55.252Z,35.73
2018-11-05T20:24:58.333Z,36.53
2018-11-05T20:28:01.431Z,34.83
2018-11-05T20:31:05.153Z,33.73
2018-11-05T20:34:08.644Z,35.53
2018-11-05T20:37:11.372Z,33.63
2018-11-05T20:40:15.663Z,32.00
2018-11-05T20:43:18.705Z,33.60
2018-11-05T20:46:21.799Z,32.53
2018-11-05T20:49:24.870Z,33.80
2018-11-05T20:52:27.977Z,34.73
2018-11-05T20:55:32.366Z,32.53
2018-11-05T20:58:35.473Z,29.60
2018-11-05T21:01:38.561Z,30.97
2018-11-05T21:04:41.634Z,31.80
2018-11-05T21:07:45.209Z,29.17
2018-11-05T21:10:48.285Z,30.80
2018-11-05T21:13:51.369Z,30.83
2018-11-05T21:16:54.505Z,29.80
2018-11-05T21:19:57.521Z,31.07
2018-11-05T21:23:00.694Z,30.83
2018-11-05T21:26:04.065Z,29.10
2018-11-05T21:29:07.165Z,29.00
2018-11-05T21:32:10.238Z,27.93
2018-11-05T21:35:14.755Z,28.77
2018-11-05T21:38:17.813Z,28.73
2018-11-05T21:41:20.902Z,28.73
2018-11-05T21:44:23.977Z,28.50
2018-11-05T21:47:27.155Z,28.70
2018-11-05T21:50:32.229Z,27.47
2018-11-05T21:53:35.302Z,26.97
2018-11-05T21:56:38.400Z,26.70
2018-11-05T21:59:41.488Z,28.07
2018-11-05T22:02:49.983Z,28.47
2018-11-05T22:05:53.082Z,28.60
2018-11-05T22:08:56.174Z,27.73
2018-11-05T22:11:59.285Z,28.33
2018-11-05T22:15:02.498Z,27.30
2018-11-05T22:18:05.590Z,26.67
2018-11-05T22:21:08.683Z,28.07
2018-11-05T22:24:11.786Z,27.67
2018-11-05T22:27:14.900Z,29.60
2018-11-05T22:30:17.954Z,27.40
2018-11-05T22:33:21.046Z,29.73
2018-11-05T22:36:24.150Z,30.80
2018-11-05T22:39:27.280Z,30.50
2018-11-05T22:42:30.374Z,28.87
2018-11-05T22:45:33.450Z,29.47
2018-11-05T22:48:36.547Z,30.10
2018-11-05T22:51:39.601Z,28.27
2018-11-05T22:54:42.697Z,27.30
2018-11-05T22:57:45.765Z,29.03
2018-11-05T23:00:54.369Z,30.23
2018-11-05T23:03:57.445Z,29.70
2018-11-05T23:07:00.522Z,27.93
2018-11-05T23:10:03.601Z,27.07
2018-11-05T23:13:06.730Z,29.37
2018-11-05T23:16:09.815Z,28.17
2018-11-05T23:19:12.946Z,27.73
2018-11-05T23:22:16.022Z,28.03
2018-11-05T23:25:19.129Z,29.57
2018-11-05T23:28:22.211Z,29.77
2018-11-05T23:31:25.275Z,32.03
2018-11-05T23:34:28.373Z,26.97
2018-11-05T23:37:31.525Z,29.00
2018-11-05T23:40:34.629Z,27.13
2018-11-05T23:43:37.689Z,31.40
2018-11-05T23:46:40.781Z,28.00
2018-11-05T23:49:43.866Z,24.90
2018-11-05T23:52:46.930Z,26.67
2018-11-05T23:55:50.026Z,24.53
2018-11-05T23:58:53.091Z,23.47
